Accueil
METAR-TAF:

METAR-TAF

Aéroports :

Fritzlar, Allemagne

latitude: 51-07N, longitude: 009-17E, altitude: 172 m

Observation

Le bulletin a été fait il y a 19 minutes, à 23:20 UTC
Vent 1 kt de ouest
Température 12°C
Humidité 82%
Pression 1023 hPa
Visibilité 10 km ou plus
Nuages fragmentés à une hauteur de 4600 ft

METAR: ETHF 232320Z 27001KT 9999 BKN046 12/09 Q1023 BLU

Heure: 01:39 (23:39 UTC)


TAF: absent

Observations et prévisions météorologiques de plus de 4000 aéroports (messages METAR et TAF).

Les stations disponibles sont représentées par des disques jaunes et rouges sur la carte.

Passer la souris dessus pour voir le nom de la station.

Cliquer dessus pour voir les observations et prévisions météorologiques.

Pour changer de carte: cliquez sur les boutons verts avec une croix noire pour zoomer, sur le bouton vert avec un tiret pour effectuer un zoom arrière, ou sur les flèches vertes pour les cartes adjacentes.


METAR-TAF: